Time;durP1;ratioP1;P1;durP2;ratioP2;P2;SDS_P1;SDS_P2;PMS_P1;PMS_P2;Temp;Humidity;BMP_temperature;BMP_pressure;BME280_temperature;BME280_humidity;BME280_pressure;Samples;Min_cycle;Max_cycle;Signal;HPM_P1;HPM_P2
2023/05/12 00:02:13;;;;;;;13.20;9.40;;;22.70;54.50;;;;;;4956446;28;20467;-77
2023/05/12 00:04:41;;;;;;;13.43;10.30;;;22.70;54.60;;;;;;4963031;28;20475;-77
2023/05/12 00:07:09;;;;;;;10.70;7.97;;;22.70;54.60;;;;;;4955705;29;20418;-77
2023/05/12 00:09:37;;;;;;;18.40;8.60;;;22.70;54.70;;;;;;4956007;28;20454;-78
2023/05/12 00:12:05;;;;;;;9.83;7.80;;;22.70;54.70;;;;;;4955960;28;20446;-77
2023/05/12 00:14:34;;;;;;;11.43;9.00;;;22.60;54.80;;;;;;4958226;28;20431;-77
2023/05/12 00:17:03;;;;;;;9.40;8.30;;;22.70;54.80;;;;;;4959264;28;20446;-77
2023/05/12 00:19:32;;;;;;;11.83;7.97;;;22.60;54.60;;;;;;4955172;29;20442;-77
2023/05/12 00:22:00;;;;;;;13.20;8.20;;;22.70;54.70;;;;;;4954527;28;20447;-77
2023/05/12 00:24:29;;;;;;;9.07;7.23;;;22.60;54.70;;;;;;4954433;29;20482;-77
2023/05/12 00:26:57;;;;;;;10.07;7.93;;;22.60;54.60;;;;;;4955736;29;20940;-77
2023/05/12 00:29:25;;;;;;;10.60;7.73;;;22.60;54.70;;;;;;4960490;28;20483;-77
2023/05/12 00:31:53;;;;;;;7.97;7.17;;;22.70;54.80;;;;;;4953299;28;20467;-77
2023/05/12 00:34:20;;;;;;;8.20;7.40;;;22.60;55.40;;;;;;4954648;28;20445;-77
2023/05/12 00:36:50;;;;;;;8.07;6.80;;;22.60;54.80;;;;;;4955142;29;20466;-77
2023/05/12 00:39:18;;;;;;;10.20;7.50;;;22.60;54.90;;;;;;4954714;29;20445;-77
2023/05/12 00:41:46;;;;;;;8.37;7.30;;;22.60;54.80;;;;;;4955067;29;20439;-77
2023/05/12 00:44:14;;;;;;;8.20;7.10;;;22.60;54.90;;;;;;4955349;29;20467;-77
2023/05/12 00:46:42;;;;;;;12.03;7.40;;;22.60;54.90;;;;;;4955458;29;20462;-77
2023/05/12 00:49:10;;;;;;;8.87;7.00;;;22.60;54.90;;;;;;4963250;28;20446;-77
2023/05/12 00:51:38;;;;;;;7.87;6.90;;;22.50;54.90;;;;;;4964109;28;20459;-77
2023/05/12 00:54:07;;;;;;;10.70;6.90;;;22.50;54.80;;;;;;4958337;28;20465;-77
2023/05/12 00:56:38;;;;;;;8.13;6.50;;;22.50;54.90;;;;;;4961253;28;20466;-77
2023/05/12 00:59:06;;;;;;;8.47;6.80;;;22.50;55.00;;;;;;4957382;29;20557;-77
2023/05/12 01:01:34;;;;;;;10.13;6.90;;;22.50;55.00;;;;;;4960299;28;20514;-77
2023/05/12 01:04:02;;;;;;;8.40;7.50;;;22.50;55.00;;;;;;4959262;28;20502;-77
2023/05/12 01:06:33;;;;;;;8.93;6.30;;;22.40;55.00;;;;;;4958603;28;20483;-77
2023/05/12 01:09:01;;;;;;;7.63;6.80;;;22.40;55.00;;;;;;4959152;28;20498;-77
2023/05/12 01:11:30;;;;;;;6.70;6.03;;;22.40;55.10;;;;;;4966647;28;20542;-77
2023/05/12 01:13:58;;;;;;;9.33;7.00;;;22.40;55.10;;;;;;4958471;28;20473;-77
2023/05/12 01:16:29;;;;;;;7.27;6.00;;;22.30;55.20;;;;;;4960038;28;20446;-77
2023/05/12 01:18:57;;;;;;;6.60;6.00;;;22.30;55.20;;;;;;4968081;28;20446;-77
2023/05/12 01:21:25;;;;;;;6.67;6.00;;;22.30;55.20;;;;;;4958768;28;20443;-77
2023/05/12 01:23:57;;;;;;;7.73;6.03;;;22.30;55.20;;;;;;4957346;28;20482;-77
2023/05/12 01:26:28;;;;;;;7.97;6.90;;;22.30;55.20;;;;;;4966008;28;20471;-77
2023/05/12 01:28:56;;;;;;;7.67;6.40;;;22.20;55.20;;;;;;4959327;28;20960;-77
2023/05/12 01:31:25;;;;;;;6.80;6.10;;;22.20;55.30;;;;;;4959021;28;20462;-77
2023/05/12 01:33:53;;;;;;;7.63;6.73;;;22.20;55.30;;;;;;4957177;28;20467;-77
2023/05/12 01:36:21;;;;;;;10.80;6.60;;;22.20;55.40;;;;;;4957086;28;20439;-77
2023/05/12 01:38:49;;;;;;;9.40;6.27;;;22.20;55.40;;;;;;4957369;28;20453;-77
2023/05/12 01:41:17;;;;;;;6.90;6.20;;;22.20;55.40;;;;;;4957935;29;20422;-77
2023/05/12 01:43:46;;;;;;;6.80;6.17;;;22.10;55.30;;;;;;4958510;28;20502;-77
2023/05/12 01:46:14;;;;;;;6.93;6.20;;;22.20;55.40;;;;;;4958067;28;20471;-77
2023/05/12 01:48:43;;;;;;;8.53;6.00;;;22.10;55.40;;;;;;4959333;28;20454;-77
2023/05/12 01:51:12;;;;;;;5.83;5.23;;;22.10;55.50;;;;;;4957827;28;20453;-77
2023/05/12 01:53:40;;;;;;;8.03;5.83;;;22.10;55.50;;;;;;4965904;28;20437;-77
2023/05/12 01:56:07;;;;;;;8.00;6.00;;;22.10;55.50;;;;;;4953757;29;20951;-77
2023/05/12 01:58:38;;;;;;;6.47;5.83;;;22.00;55.50;;;;;;4964327;28;20506;-77
2023/05/12 02:01:08;;;;;;;8.67;5.87;;;22.00;55.50;;;;;;4961358;28;20490;-77
2023/05/12 02:03:36;;;;;;;6.97;5.90;;;22.00;55.60;;;;;;4965203;28;20474;-77
2023/05/12 02:06:05;;;;;;;5.27;4.87;;;22.00;55.60;;;;;;4958213;28;20485;-77
2023/05/12 02:08:33;;;;;;;9.37;5.70;;;22.00;55.60;;;;;;4956660;28;20439;-76
2023/05/12 02:11:05;;;;;;;7.80;6.03;;;22.00;55.70;;;;;;4963023;28;20451;-77
2023/05/12 02:13:33;;;;;;;6.23;5.67;;;22.00;55.60;;;;;;4968889;28;20466;-77
2023/05/12 02:16:01;;;;;;;6.23;5.63;;;21.90;55.60;;;;;;4966099;28;20449;-77
2023/05/12 02:18:30;;;;;;;6.40;5.80;;;21.90;55.70;;;;;;4970815;28;20451;-77
2023/05/12 02:20:58;;;;;;;6.17;5.50;;;21.90;55.60;;;;;;4960183;28;20458;-77
2023/05/12 02:23:26;;;;;;;6.67;5.57;;;21.90;55.70;;;;;;4956589;28;20473;-77
2023/05/12 02:25:54;;;;;;;6.63;5.57;;;21.90;55.60;;;;;;4957506;29;20498;-77
2023/05/12 02:28:23;;;;;;;7.47;5.77;;;21.90;55.80;;;;;;4958436;28;20462;-77
2023/05/12 02:30:51;;;;;;;6.83;5.87;;;21.80;55.70;;;;;;4966466;28;20443;-77
2023/05/12 02:33:20;;;;;;;6.60;5.47;;;21.80;55.70;;;;;;4955927;28;20505;-77
2023/05/12 02:35:50;;;;;;;6.27;5.67;;;21.90;55.70;;;;;;4958731;28;20447;-77
2023/05/12 02:38:18;;;;;;;5.97;5.30;;;21.80;55.60;;;;;;4950129;29;20447;-77
2023/05/12 02:40:46;;;;;;;5.67;5.17;;;21.80;55.70;;;;;;4956621;28;20447;-77
2023/05/12 02:43:14;;;;;;;6.00;5.13;;;21.80;55.80;;;;;;4957052;29;20465;-77
2023/05/12 02:45:42;;;;;;;6.03;5.43;;;21.80;55.70;;;;;;4964810;28;20471;-77
2023/05/12 02:48:11;;;;;;;6.10;5.10;;;21.80;55.70;;;;;;4964924;28;20482;-77
2023/05/12 02:50:39;;;;;;;5.60;5.10;;;21.80;55.90;;;;;;4959673;28;20462;-77
2023/05/12 02:53:09;;;;;;;6.03;5.43;;;21.80;55.80;;;;;;4956719;28;20456;-77
2023/05/12 02:55:37;;;;;;;5.80;5.30;;;21.80;55.80;;;;;;4956807;28;20447;-77
2023/05/12 02:58:04;;;;;;;5.07;4.57;;;21.80;55.80;;;;;;4957373;28;20478;-77
2023/05/12 03:00:32;;;;;;;5.70;5.10;;;21.80;55.80;;;;;;4957383;28;20451;-77
2023/05/12 03:03:00;;;;;;;5.73;5.00;;;21.80;55.90;;;;;;4956732;28;20483;-77
2023/05/12 03:05:28;;;;;;;5.53;4.87;;;21.80;55.80;;;;;;4958002;28;20477;-77
2023/05/12 03:07:56;;;;;;;5.47;4.97;;;21.70;55.80;;;;;;4963197;28;20451;-77
2023/05/12 03:10:26;;;;;;;5.50;5.00;;;21.70;55.80;;;;;;4965457;28;20474;-77
2023/05/12 03:12:53;;;;;;;5.10;4.60;;;21.80;56.00;;;;;;4965025;28;20473;-77
2023/05/12 03:15:22;;;;;;;5.53;5.13;;;21.70;55.90;;;;;;4956525;28;20486;-77
2023/05/12 03:17:49;;;;;;;5.43;5.03;;;21.70;55.80;;;;;;4956469;28;20447;-77
2023/05/12 03:20:18;;;;;;;4.97;4.57;;;21.70;56.00;;;;;;4954437;28;20468;-77
2023/05/12 03:22:47;;;;;;;5.20;4.77;;;21.70;55.80;;;;;;4957088;28;20474;-77
2023/05/12 03:25:15;;;;;;;5.57;5.00;;;21.70;55.90;;;;;;4961927;28;20438;-76
2023/05/12 03:27:45;;;;;;;5.90;5.30;;;21.70;56.00;;;;;;4949493;28;20502;-77
2023/05/12 03:30:13;;;;;;;5.63;5.13;;;21.70;55.90;;;;;;4960739;28;20469;-77
2023/05/12 03:32:43;;;;;;;5.23;4.73;;;21.70;56.00;;;;;;4956750;28;20471;-77
2023/05/12 03:35:11;;;;;;;9.30;5.30;;;21.70;55.90;;;;;;4965128;28;20443;-77
2023/05/12 03:37:39;;;;;;;6.23;5.57;;;21.70;55.90;;;;;;4956972;28;20483;-77
2023/05/12 03:40:08;;;;;;;5.20;4.80;;;21.70;55.90;;;;;;4956703;28;20447;-77
2023/05/12 03:42:36;;;;;;;5.77;5.23;;;21.70;55.90;;;;;;4963216;28;20471;-77
2023/05/12 03:45:07;;;;;;;6.00;5.40;;;21.70;55.90;;;;;;4958018;28;20961;-77
2023/05/12 03:47:35;;;;;;;5.17;4.77;;;21.60;55.80;;;;;;4965468;28;20466;-77
2023/05/12 03:50:03;;;;;;;5.33;4.80;;;21.60;56.00;;;;;;4958319;28;20483;-77
2023/05/12 03:52:31;;;;;;;5.57;5.03;;;21.60;55.90;;;;;;4956966;28;20471;-77
2023/05/12 03:54:59;;;;;;;4.90;4.50;;;21.60;56.00;;;;;;4956545;29;20439;-76
2023/05/12 03:57:27;;;;;;;4.77;4.37;;;21.70;56.00;;;;;;4956736;29;20438;-77
2023/05/12 03:59:54;;;;;;;4.20;3.90;;;21.70;56.00;;;;;;4954600;28;20455;-77
2023/05/12 04:02:24;;;;;;;5.20;4.70;;;21.70;55.90;;;;;;4955555;28;20913;-77
2023/05/12 04:04:52;;;;;;;4.53;4.13;;;21.70;55.90;;;;;;4961105;28;20475;-77
2023/05/12 04:07:19;;;;;;;4.73;4.33;;;21.60;56.00;;;;;;4958900;28;20489;-77
2023/05/12 04:09:47;;;;;;;6.07;4.40;;;21.60;55.90;;;;;;4961323;28;20451;-77
2023/05/12 04:12:15;;;;;;;4.43;4.13;;;21.70;55.90;;;;;;4956663;29;20462;-78
2023/05/12 04:14:44;;;;;;;4.97;4.13;;;21.60;55.90;;;;;;4960095;28;20461;-77
2023/05/12 04:17:11;;;;;;;4.87;4.47;;;21.70;55.90;;;;;;4961415;28;20450;-77
2023/05/12 04:19:41;;;;;;;4.80;4.27;;;21.60;55.90;;;;;;4956386;28;20479;-76
2023/05/12 04:22:09;;;;;;;7.60;4.67;;;21.60;55.90;;;;;;4966433;28;20446;-76
2023/05/12 04:24:38;;;;;;;5.00;4.60;;;21.60;56.00;;;;;;4960095;28;20429;-76
2023/05/12 04:27:06;;;;;;;4.30;4.00;;;21.60;55.90;;;;;;4961646;28;20475;-76
2023/05/12 04:29:35;;;;;;;3.53;3.33;;;21.70;55.90;;;;;;4955360;29;20463;-76
2023/05/12 04:32:03;;;;;;;4.13;3.83;;;21.70;56.00;;;;;;4964867;28;20439;-76
2023/05/12 04:34:31;;;;;;;4.57;4.17;;;21.70;56.00;;;;;;4956983;28;20465;-76
2023/05/12 04:37:00;;;;;;;4.63;4.23;;;21.70;55.80;;;;;;4956812;28;20449;-76
2023/05/12 04:39:28;;;;;;;3.67;3.47;;;21.70;55.80;;;;;;4959236;28;20450;-76
2023/05/12 04:41:56;;;;;;;4.73;4.33;;;21.70;56.00;;;;;;4954870;28;20454;-76
2023/05/12 04:44:24;;;;;;;3.90;3.70;;;21.70;55.90;;;;;;4965122;28;20449;-76
2023/05/12 04:46:55;;;;;;;4.70;4.33;;;21.70;55.90;;;;;;4957368;28;20540;-76
2023/05/12 04:49:23;;;;;;;4.70;4.30;;;21.70;55.80;;;;;;4966755;28;20458;-76
2023/05/12 04:51:51;;;;;;;4.50;4.20;;;21.70;55.90;;;;;;4958886;28;20451;-76
2023/05/12 04:54:21;;;;;;;4.80;3.80;;;21.70;55.90;;;;;;4957943;28;20451;-76
2023/05/12 04:56:49;;;;;;;4.23;3.90;;;21.70;55.70;;;;;;4957629;28;20447;-76
2023/05/12 04:59:17;;;;;;;4.13;3.70;;;21.70;55.90;;;;;;4957332;29;20470;-77
2023/05/12 05:01:45;;;;;;;4.27;3.97;;;21.70;55.70;;;;;;4955468;28;20451;-77
2023/05/12 05:04:13;;;;;;;4.63;4.30;;;21.70;55.80;;;;;;4965930;28;20440;-76
2023/05/12 05:06:41;;;;;;;4.37;3.60;;;21.70;55.90;;;;;;4962295;28;20477;-76
2023/05/12 05:09:09;;;;;;;4.40;4.10;;;21.70;55.80;;;;;;4959175;29;20454;-76
2023/05/12 05:11:39;;;;;;;4.80;4.40;;;21.70;55.70;;;;;;4959379;28;20454;-76
2023/05/12 05:14:07;;;;;;;4.10;3.80;;;21.70;55.80;;;;;;4959691;29;20473;-76
2023/05/12 05:16:35;;;;;;;3.73;3.53;;;21.70;55.80;;;;;;4973396;28;20438;-76
2023/05/12 05:19:03;;;;;;;4.17;3.87;;;21.70;55.70;;;;;;4960054;29;20438;-76
2023/05/12 05:21:36;;;;;;;3.80;3.60;;;21.70;55.70;;;;;;4959464;28;20510;-76
2023/05/12 05:24:04;;;;;;;5.67;3.90;;;21.70;55.80;;;;;;4958049;28;20481;-76
2023/05/12 05:26:35;;;;;;;4.23;3.93;;;21.80;55.80;;;;;;4959301;28;20447;-76
2023/05/12 05:29:05;;;;;;;3.57;3.37;;;21.70;55.80;;;;;;4958981;28;20478;-76
2023/05/12 05:31:33;;;;;;;3.50;3.30;;;21.70;55.70;;;;;;4958980;29;20466;-76
2023/05/12 05:34:01;;;;;;;3.87;3.57;;;21.80;55.80;;;;;;4958801;28;20470;-76
2023/05/12 05:36:29;;;;;;;4.20;3.90;;;21.80;55.80;;;;;;4959126;29;20455;-76
2023/05/12 05:38:58;;;;;;;3.53;3.33;;;21.70;55.60;;;;;;4954816;28;20503;-76
2023/05/12 05:41:26;;;;;;;4.30;4.00;;;21.80;55.80;;;;;;4958747;28;20447;-76
2023/05/12 05:43:53;;;;;;;4.60;4.30;;;21.80;55.80;;;;;;4967495;28;20506;-76
2023/05/12 05:46:23;;;;;;;4.60;4.27;;;21.80;55.70;;;;;;4958489;29;20481;-76
2023/05/12 05:48:51;;;;;;;4.30;4.00;;;21.80;55.70;;;;;;4958573;28;20513;-76
2023/05/12 05:51:19;;;;;;;5.10;3.63;;;21.80;55.70;;;;;;4961733;28;20459;-77
2023/05/12 05:53:48;;;;;;;4.33;4.03;;;21.80;55.50;;;;;;4968290;28;20473;-76
2023/05/12 05:56:16;;;;;;;4.03;3.73;;;21.90;55.60;;;;;;4966432;28;20550;-78
2023/05/12 05:58:45;;;;;;;4.13;3.83;;;21.90;55.70;;;;;;4958911;28;20450;-77
2023/05/12 06:01:14;;;;;;;3.90;3.63;;;22.00;55.60;;;;;;4958883;28;20841;-76
2023/05/12 06:03:43;;;;;;;3.90;3.70;;;22.00;55.50;;;;;;4962153;28;20447;-76
2023/05/12 06:06:12;;;;;;;3.77;3.53;;;22.10;55.50;;;;;;4963447;28;20451;-76
2023/05/12 06:08:39;;;;;;;4.33;3.93;;;22.10;55.40;;;;;;4959990;29;20860;-76
2023/05/12 06:11:07;;;;;;;3.90;3.60;;;22.10;55.30;;;;;;4958877;28;20451;-76
2023/05/12 06:13:36;;;;;;;4.30;4.00;;;22.20;55.40;;;;;;4961055;28;20494;-76
2023/05/12 06:16:07;;;;;;;3.90;3.70;;;22.30;55.30;;;;;;4963941;28;20440;-76
2023/05/12 06:18:36;;;;;;;3.70;3.40;;;22.30;55.10;;;;;;4960164;28;20486;-76
2023/05/12 06:21:06;;;;;;;4.77;4.00;;;22.30;55.10;;;;;;4963980;28;20442;-76
2023/05/12 06:23:34;;;;;;;4.33;3.97;;;22.40;55.10;;;;;;4964657;28;20471;-76
2023/05/12 06:26:02;;;;;;;3.60;3.40;;;22.40;55.00;;;;;;4964908;28;20458;-76
2023/05/12 06:28:30;;;;;;;3.70;3.50;;;22.40;54.80;;;;;;4966500;28;20478;-77
2023/05/12 06:30:59;;;;;;;3.30;3.10;;;22.50;55.00;;;;;;4966003;28;20501;-77
2023/05/12 06:33:27;;;;;;;3.77;3.47;;;22.50;54.80;;;;;;4963579;28;20540;-78
2023/05/12 06:35:56;;;;;;;3.63;3.43;;;22.50;54.80;;;;;;4958219;28;20526;-76
2023/05/12 06:38:26;;;;;;;3.87;3.67;;;22.60;54.80;;;;;;4960760;28;20450;-76
2023/05/12 06:40:54;;;;;;;3.90;3.70;;;22.60;54.80;;;;;;4967168;28;20454;-76
2023/05/12 06:43:22;;;;;;;3.77;3.53;;;22.60;54.70;;;;;;4962450;29;20510;-76
2023/05/12 06:45:50;;;;;;;3.77;3.47;;;22.60;54.70;;;;;;4966541;28;20430;-76
2023/05/12 06:48:18;;;;;;;3.30;3.20;;;22.60;54.70;;;;;;4958241;28;20478;-76
2023/05/12 06:50:46;;;;;;;4.57;4.23;;;22.70;54.90;;;;;;4960059;29;20443;-76
2023/05/12 06:53:14;;;;;;;3.73;3.53;;;22.70;54.50;;;;;;4966248;28;20466;-77
2023/05/12 06:55:45;;;;;;;3.60;3.40;;;22.80;54.70;;;;;;4960896;28;20445;-76
2023/05/12 06:58:13;;;;;;;4.07;3.87;;;22.90;54.50;;;;;;4964481;28;20473;-76
2023/05/12 07:00:42;;;;;;;4.00;3.70;;;22.90;54.50;;;;;;4955020;28;20463;-76
2023/05/12 07:03:10;;;;;;;3.83;3.63;;;22.90;54.40;;;;;;4955591;28;20474;-76
2023/05/12 07:05:38;;;;;;;3.90;3.60;;;22.90;54.40;;;;;;4964325;28;20453;-76
2023/05/12 07:08:06;;;;;;;3.67;3.47;;;23.00;54.40;;;;;;4949622;28;20482;-78
2023/05/12 07:10:34;;;;;;;4.00;3.70;;;23.00;54.40;;;;;;4955465;28;20453;-76
2023/05/12 07:13:04;;;;;;;4.00;3.70;;;23.10;54.30;;;;;;4956984;28;20497;-76
2023/05/12 07:15:32;;;;;;;3.43;3.23;;;23.10;54.30;;;;;;4956356;28;20451;-76
2023/05/12 07:18:00;;;;;;;3.93;3.60;;;23.10;54.30;;;;;;4955294;29;20482;-76
2023/05/12 07:20:28;;;;;;;4.27;3.97;;;23.20;54.30;;;;;;4955290;29;20455;-76
2023/05/12 07:22:57;;;;;;;4.17;3.90;;;23.20;54.20;;;;;;4953188;29;20471;-76
2023/05/12 07:25:24;;;;;;;4.00;3.70;;;23.30;54.20;;;;;;4954502;28;20451;-77
2023/05/12 07:27:53;;;;;;;3.67;3.47;;;23.30;54.20;;;;;;4954066;28;20457;-77
2023/05/12 07:30:22;;;;;;;4.30;4.00;;;23.30;54.20;;;;;;4954563;28;20458;-77
2023/05/12 07:32:50;;;;;;;4.00;3.80;;;23.40;54.20;;;;;;4952977;28;20489;-77
2023/05/12 07:35:18;;;;;;;4.10;3.90;;;23.40;54.10;;;;;;4955789;28;20546;-77
2023/05/12 07:37:47;;;;;;;4.40;4.13;;;23.50;54.10;;;;;;4954145;29;20451;-77
2023/05/12 07:40:15;;;;;;;4.50;4.13;;;23.60;54.00;;;;;;4962908;28;20450;-77
2023/05/12 07:42:43;;;;;;;4.23;4.00;;;23.60;54.10;;;;;;4953786;28;20522;-77
2023/05/12 07:45:11;;;;;;;4.10;3.80;;;23.60;54.00;;;;;;4947596;28;20452;-77
2023/05/12 07:47:40;;;;;;;4.00;3.80;;;23.80;54.20;;;;;;4954255;28;20507;-77
2023/05/12 07:50:09;;;;;;;4.00;3.80;;;23.90;54.20;;;;;;4954736;28;20448;-77
2023/05/12 07:52:38;;;;;;;6.33;4.50;;;23.90;53.90;;;;;;4966263;28;20475;-77
2023/05/12 07:55:07;;;;;;;11.80;9.30;;;24.00;53.90;;;;;;4953816;28;21062;-81
2023/05/12 07:57:35;;;;;;;20.07;12.37;;;23.80;54.40;;;;;;4958166;28;20465;-80
2023/05/12 08:00:05;;;;;;;22.93;12.80;;;23.60;55.90;;;;;;4955537;28;20446;-81
2023/05/12 08:02:33;;;;;;;25.10;15.73;;;23.60;56.40;;;;;;4967847;28;20449;-77
2023/05/12 08:05:03;;;;;;;18.90;14.90;;;23.70;57.00;;;;;;4955659;28;20456;-77
2023/05/12 08:07:31;;;;;;;21.33;15.03;;;23.90;56.80;;;;;;4957714;28;20443;-77
2023/05/12 08:09:59;;;;;;;20.73;14.90;;;24.20;56.50;;;;;;4953979;28;20482;-77
2023/05/12 08:12:27;;;;;;;19.30;13.30;;;24.40;56.40;;;;;;4954957;29;20470;-77
2023/05/12 08:17:40;;;;;;;14.70;12.17;;;24.70;56.20;;;;;;4957449;28;20462;-78
2023/05/12 08:20:11;;;;;;;15.40;12.97;;;24.90;56.10;;;;;;4957910;28;20414;-78
2023/05/12 08:22:39;;;;;;;16.23;12.57;;;25.10;55.90;;;;;;4959770;29;20469;-78
2023/05/12 08:25:08;;;;;;;14.63;12.33;;;25.30;55.70;;;;;;4964217;28;20451;-77
2023/05/12 08:27:39;;;;;;;17.03;10.57;;;25.40;55.50;;;;;;4960109;28;20461;-78
2023/05/12 08:30:08;;;;;;;11.93;10.73;;;25.60;55.30;;;;;;4953596;28;20482;-79
2023/05/12 08:32:36;;;;;;;12.93;10.00;;;25.80;55.20;;;;;;4956990;28;20449;-77
2023/05/12 08:35:04;;;;;;;14.93;10.97;;;25.90;55.00;;;;;;4956271;28;20494;-77
2023/05/12 08:37:34;;;;;;;13.60;10.90;;;26.10;54.60;;;;;;4964357;28;20462;-78
2023/05/12 08:40:03;;;;;;;12.57;10.50;;;26.30;54.30;;;;;;4956984;28;20453;-78
2023/05/12 08:42:37;;;;;;;14.80;10.03;;;26.50;54.10;;;;;;4956913;28;20475;-77
2023/05/12 08:45:06;;;;;;;13.07;10.30;;;26.60;53.80;;;;;;4956400;29;20458;-77
2023/05/12 08:47:34;;;;;;;11.17;10.07;;;26.80;53.70;;;;;;4962590;28;20421;-77
2023/05/12 08:50:03;;;;;;;14.93;9.67;;;27.10;53.50;;;;;;4961961;28;20511;-78
2023/05/12 08:52:35;;;;;;;12.27;10.27;;;27.30;53.40;;;;;;4965531;28;20501;-77
2023/05/12 08:55:05;;;;;;;10.73;9.00;;;27.40;53.10;;;;;;4962107;28;20425;-77
2023/05/12 08:57:35;;;;;;;9.67;8.67;;;27.60;53.10;;;;;;4966617;28;20485;-77
2023/05/12 09:00:08;;;;;;;9.67;8.67;;;27.80;52.80;;;;;;4958711;28;20428;-78
2023/05/12 09:02:37;;;;;;;9.63;8.50;;;28.00;52.70;;;;;;4958182;28;20518;-77
2023/05/12 09:05:19;;;;;;;9.80;8.80;;;28.20;52.40;;;;;;4962298;28;20497;-77
2023/05/12 09:07:49;;;;;;;9.40;8.40;;;28.30;52.00;;;;;;4961364;28;20473;-78
2023/05/12 09:10:18;;;;;;;11.50;8.70;;;28.40;51.70;;;;;;4957334;28;20449;-78
2023/05/12 09:13:03;;;;;;;8.40;7.60;;;28.40;51.40;;;;;;4965083;28;20458;-78
2023/05/12 09:15:35;;;;;;;9.37;7.77;;;28.40;51.40;;;;;;4955421;28;20461;-78
2023/05/12 09:18:03;;;;;;;8.73;7.90;;;28.40;51.40;;;;;;4971483;28;20460;-78
2023/05/12 09:20:31;;;;;;;9.30;7.83;;;28.40;51.50;;;;;;4958170;28;20455;-78
2023/05/12 09:23:11;;;;;;;8.73;7.93;;;28.50;51.60;;;;;;4963719;28;20493;-78
2023/05/12 09:25:39;;;;;;;8.17;7.37;;;28.70;51.60;;;;;;4959040;28;20429;-78
2023/05/12 09:28:07;;;;;;;8.67;7.83;;;28.90;51.30;;;;;;4957820;28;20955;-79
2023/05/12 09:30:37;;;;;;;8.57;7.53;;;29.20;51.10;;;;;;4956697;28;20482;-78
2023/05/12 09:33:06;;;;;;;8.40;7.60;;;29.40;50.90;;;;;;4958770;28;20496;-78
2023/05/12 09:35:39;;;;;;;10.20;8.07;;;29.50;50.60;;;;;;4962155;28;20466;-77
2023/05/12 09:38:09;;;;;;;8.53;7.30;;;29.70;50.40;;;;;;4961104;28;20438;-78
2023/05/12 09:40:37;;;;;;;9.33;7.30;;;29.80;50.10;;;;;;4967611;28;20542;-78
2023/05/12 09:43:06;;;;;;;8.40;7.67;;;29.90;50.00;;;;;;4960380;28;20478;-78
2023/05/12 09:45:35;;;;;;;7.13;6.50;;;30.10;49.90;;;;;;4957977;28;20459;-78
2023/05/12 09:48:09;;;;;;;7.43;6.73;;;30.20;49.70;;;;;;4957948;28;20438;-78
2023/05/12 09:50:44;;;;;;;7.10;6.50;;;30.40;49.60;;;;;;4954579;28;20471;-76
2023/05/12 09:53:17;;;;;;;7.40;6.80;;;30.60;49.60;;;;;;4951697;29;20470;-78
2023/05/12 09:55:46;;;;;;;6.93;6.43;;;30.70;49.10;;;;;;4956006;28;20870;-76
2023/05/12 09:58:15;;;;;;;9.00;6.60;;;30.90;49.20;;;;;;4958654;28;20459;-78
2023/05/12 10:00:43;;;;;;;7.67;7.07;;;31.10;48.80;;;;;;4954295;28;20470;-77
2023/05/12 10:03:31;;;;;;;6.27;5.80;;;31.30;48.80;;;;;;4950715;28;20522;-78
2023/05/12 10:06:00;;;;;;;6.47;5.87;;;31.50;48.40;;;;;;4949851;28;20463;-78
2023/05/12 10:08:32;;;;;;;7.13;6.63;;;31.60;48.30;;;;;;4945632;28;20452;-78
2023/05/12 10:11:00;;;;;;;7.00;6.50;;;31.80;48.20;;;;;;4951644;29;20487;-78
2023/05/12 10:13:28;;;;;;;7.10;6.40;;;31.90;48.10;;;;;;4953838;28;20482;-78
2023/05/12 10:15:56;;;;;;;6.13;5.57;;;32.00;47.90;;;;;;4954193;28;20466;-79
2023/05/12 10:18:24;;;;;;;6.33;5.80;;;32.20;47.70;;;;;;4955082;29;20451;-78
2023/05/12 10:20:53;;;;;;;6.00;5.60;;;32.30;47.60;;;;;;4952921;29;20443;-78
2023/05/12 10:23:21;;;;;;;6.03;5.60;;;32.60;47.60;;;;;;4952222;28;20493;-78
2023/05/12 10:25:50;;;;;;;6.80;6.20;;;32.80;47.50;;;;;;4954756;28;20455;-79
2023/05/12 10:28:19;;;;;;;6.23;5.63;;;33.10;47.40;;;;;;4955101;28;20477;-79
2023/05/12 10:30:47;;;;;;;5.83;5.20;;;33.30;47.00;;;;;;4952691;28;20475;-78
2023/05/12 10:33:15;;;;;;;5.53;5.03;;;33.50;47.20;;;;;;4954965;28;20502;-79
2023/05/12 10:35:43;;;;;;;5.73;5.23;;;33.70;46.50;;;;;;4958904;28;20447;-78
2023/05/12 10:38:15;;;;;;;6.20;5.00;;;33.90;46.30;;;;;;4954974;28;20486;-78
2023/05/12 10:40:53;;;;;;;5.60;5.10;;;34.00;46.10;;;;;;4953673;29;20454;-79
2023/05/12 10:43:24;;;;;;;5.03;4.73;;;34.20;46.20;;;;;;4963729;28;20470;-77
2023/05/12 10:46:17;;;;;;;4.73;4.53;;;34.30;46.00;;;;;;4955351;28;20458;-79
2023/05/12 10:48:55;;;;;;;5.13;4.43;;;34.50;45.90;;;;;;4952426;28;20542;-78
2023/05/12 10:51:25;;;;;;;4.97;4.67;;;34.70;45.60;;;;;;4953597;28;20470;-78
2023/05/12 10:53:56;;;;;;;4.53;4.23;;;35.00;45.50;;;;;;4955450;28;20471;-79
2023/05/12 10:56:28;;;;;;;5.40;4.90;;;35.20;45.40;;;;;;4955892;28;20451;-78
2023/05/12 10:59:13;;;;;;;4.97;4.57;;;35.40;45.10;;;;;;4963415;28;20509;-79
2023/05/12 11:01:44;;;;;;;4.60;4.40;;;35.60;44.80;;;;;;4954764;28;20451;-79
2023/05/12 11:04:13;;;;;;;4.60;4.40;;;35.80;44.60;;;;;;4951599;28;20480;-79
2023/05/12 11:06:42;;;;;;;4.37;4.07;;;36.00;44.40;;;;;;4955742;28;20451;-79
2023/05/12 11:09:12;;;;;;;4.97;4.60;;;36.30;44.20;;;;;;4954024;28;20836;-79
2023/05/12 11:11:42;;;;;;;4.40;4.20;;;36.50;44.00;;;;;;4959040;28;20479;-78
2023/05/12 11:14:10;;;;;;;4.17;4.00;;;36.90;44.00;;;;;;4958220;28;20471;-78
2023/05/12 11:16:42;;;;;;;4.13;3.90;;;38.20;42.60;;;;;;4958033;28;20450;-77
2023/05/12 11:19:11;;;;;;;4.60;4.40;;;39.40;40.90;;;;;;4947427;28;21000;-77
2023/05/12 11:21:39;;;;;;;3.67;3.37;;;40.70;39.00;;;;;;4953080;28;21031;-78
2023/05/12 11:24:09;;;;;;;3.67;3.57;;;41.90;37.20;;;;;;4952761;28;20484;-77
2023/05/12 11:26:41;;;;;;;3.07;2.97;;;42.90;35.20;;;;;;4952628;28;20498;-78
2023/05/12 11:29:09;;;;;;;2.70;2.60;;;43.90;33.90;;;;;;4953304;28;20451;-78
2023/05/12 11:31:37;;;;;;;2.40;2.40;;;44.70;32.90;;;;;;4961080;28;20509;-77
2023/05/12 11:34:07;;;;;;;2.70;2.50;;;45.40;31.90;;;;;;4953315;29;20525;-77
2023/05/12 11:36:42;;;;;;;2.57;2.47;;;46.00;30.60;;;;;;4953280;28;20442;-78
2023/05/12 11:39:13;;;;;;;2.42;2.10;;;46.60;29.80;;;;;;4954193;28;20455;-77
2023/05/12 11:41:42;;;;;;;3.20;1.90;;;47.20;29.30;;;;;;4953174;28;20209;-78
2023/05/12 11:44:16;;;;;;;1.92;1.83;;;47.60;28.70;;;;;;4953210;28;20308;-78
2023/05/12 11:46:57;;;;;;;2.05;2.05;;;48.00;28.40;;;;;;4955457;29;20204;-80
2023/05/12 11:49:26;;;;;;;1.80;1.80;;;48.30;28.10;;;;;;4953247;29;20777;-79
2023/05/12 11:51:54;;;;;;;1.77;1.77;;;48.70;28.30;;;;;;4954824;29;20220;-79
2023/05/12 11:54:23;;;;;;;2.03;1.80;;;48.90;27.90;;;;;;4954478;29;20201;-79
2023/05/12 11:56:53;;;;;;;2.67;1.73;;;49.40;27.00;;;;;;4953695;28;20200;-78
2023/05/12 11:59:28;;;;;;;4.03;1.77;;;49.40;26.90;;;;;;4960581;28;20576;-79
2023/05/12 12:01:56;;;;;;;1.70;1.70;;;49.50;26.90;;;;;;4950374;28;20238;-79
2023/05/12 12:04:34;;;;;;;1.48;1.48;;;49.60;26.40;;;;;;4955675;28;20259;-79
2023/05/12 12:07:02;;;;;;;1.70;1.70;;;49.70;26.50;;;;;;4953099;29;20208;-79
2023/05/12 12:09:31;;;;;;;1.70;1.70;;;49.40;26.00;;;;;;4952984;29;20211;-77
2023/05/12 12:12:00;;;;;;;2.03;1.93;;;47.10;27.00;;;;;;4952646;29;20224;-77
2023/05/12 12:14:28;;;;;;;2.50;2.40;;;45.30;28.30;;;;;;4952743;29;20443;-78
2023/05/12 12:16:56;;;;;;;2.43;2.37;;;44.00;29.80;;;;;;4952997;29;20452;-78
2023/05/12 12:19:25;;;;;;;2.70;2.60;;;44.10;30.30;;;;;;4953401;28;20447;-78
2023/05/12 12:21:53;;;;;;;3.40;2.50;;;45.00;30.00;;;;;;4953299;29;20453;-77
2023/05/12 12:24:21;;;;;;;6.33;2.43;;;45.20;29.50;;;;;;4952900;28;20473;-77
2023/05/12 12:26:49;;;;;;;2.93;2.67;;;43.80;29.60;;;;;;4953292;29;20453;-77
2023/05/12 12:29:19;;;;;;;2.50;2.40;;;42.60;30.70;;;;;;4953028;28;20451;-78
2023/05/12 12:31:47;;;;;;;2.63;2.53;;;41.50;31.80;;;;;;4952982;29;20533;-78
2023/05/12 12:34:15;;;;;;;3.00;2.90;;;41.20;33.10;;;;;;4952946;28;20560;-78
2023/05/12 12:36:45;;;;;;;2.77;2.67;;;41.00;33.90;;;;;;4953715;29;20446;-77
2023/05/12 12:39:14;;;;;;;2.97;2.77;;;41.90;33.10;;;;;;4953203;28;20454;-78
2023/05/12 12:41:46;;;;;;;3.73;2.20;;;42.80;31.90;;;;;;4952892;28;20450;-79
2023/05/12 12:44:15;;;;;;;2.60;2.50;;;43.20;31.10;;;;;;4953174;29;20477;-77
2023/05/12 12:46:44;;;;;;;2.80;2.70;;;42.90;30.90;;;;;;4953017;29;20484;-78
2023/05/12 12:49:13;;;;;;;2.27;2.10;;;42.10;31.00;;;;;;4952863;29;20538;-77
2023/05/12 12:51:41;;;;;;;2.80;2.60;;;41.20;31.80;;;;;;4952718;28;20481;-78
2023/05/12 12:54:14;;;;;;;3.73;2.70;;;40.50;32.50;;;;;;4956694;29;20467;-79
2023/05/12 12:56:43;;;;;;;3.17;2.97;;;39.70;33.50;;;;;;4956664;29;20447;-79
2023/05/12 12:59:12;;;;;;;2.77;2.67;;;39.00;34.20;;;;;;4956582;29;20502;-79